Time;durP1;ratioP1;P1;durP2;ratioP2;P2;SDS_P1;SDS_P2;PMS_P1;PMS_P2;Temp;Humidity;BMP_temperature;BMP_pressure;BME280_temperature;BME280_humidity;BME280_pressure;Samples;Min_cycle;Max_cycle;Signal;HPM_P1;HPM_P2
2023/08/09 00:00:32;;;;;;;;;;;;;;;11.75;100.00;101362.78;5093386;28;20378;-74
2023/08/09 00:02:59;;;;;;;;;;;;;;;11.76;100.00;101369.75;5092294;28;20337;-74
2023/08/09 00:05:24;;;;;;;;;;;;;;;11.73;100.00;101367.38;5093156;28;19974;-74
2023/08/09 00:07:49;;;;;;;;;;;;;;;11.70;100.00;101372.97;5074168;28;19952;-74
2023/08/09 00:10:14;;;;;;;;;;;;;;;11.68;100.00;101366.94;5092824;28;19988;-74
2023/08/09 00:12:40;;;;;;;;;;;;;;;11.66;100.00;101372.41;5096124;28;20354;-74
2023/08/09 00:15:05;;;;;;;;;;;;;;;11.65;100.00;101384.88;5096643;28;19924;-73
2023/08/09 00:17:30;;;;;;;;;;;;;;;11.64;100.00;101380.53;5078327;28;19973;-74
2023/08/09 00:19:56;;;;;;;;;;;;;;;11.68;100.00;101374.94;5078483;28;19926;-74
2023/08/09 00:22:21;;;;;;;;;;;;;;;11.70;100.00;101384.47;5096921;28;19916;-74
2023/08/09 00:24:47;;;;;;;;;;;;;;;11.69;100.00;101379.28;5096349;28;20014;-74
2023/08/09 00:27:13;;;;;;;;;;;;;;;11.63;100.00;101378.84;5097011;28;19916;-74
2023/08/09 00:29:38;;;;;;;;;;;;;;;11.58;100.00;101381.03;5096494;28;19916;-74
2023/08/09 00:32:04;;;;;;;;;;;;;;;11.53;100.00;101385.94;5096372;28;19946;-74
2023/08/09 00:34:29;;;;;;;;;;;;;;;11.51;100.00;101384.38;5078814;28;20262;-74
2023/08/09 00:36:54;;;;;;;;;;;;;;;11.50;100.00;101401.34;5096371;28;19920;-74
2023/08/09 00:39:19;;;;;;;;;;;;;;;11.53;100.00;101406.41;5096675;28;19920;-73
2023/08/09 00:41:45;;;;;;;;;;;;;;;11.58;100.00;101397.03;5096342;28;20391;-74
2023/08/09 00:44:10;;;;;;;;;;;;;;;11.62;100.00;101393.13;5096487;28;19955;-74
2023/08/09 00:46:37;;;;;;;;;;;;;;;11.66;100.00;101393.72;5096399;28;19927;-73
2023/08/09 00:49:03;;;;;;;;;;;;;;;11.70;100.00;101389.78;5096067;28;19923;-74
2023/08/09 00:51:28;;;;;;;;;;;;;;;11.70;100.00;101391.63;5096223;28;19916;-74
2023/08/09 00:53:53;;;;;;;;;;;;;;;11.68;100.00;101393.59;5095849;28;19920;-74
2023/08/09 00:56:18;;;;;;;;;;;;;;;11.64;100.00;101395.66;5078133;28;19928;-73
2023/08/09 00:58:44;;;;;;;;;;;;;;;11.60;100.00;101389.75;5077987;28;19927;-73
2023/08/09 01:01:09;;;;;;;;;;;;;;;11.58;100.00;101394.38;5095469;28;19916;-74
2023/08/09 01:03:34;;;;;;;;;;;;;;;11.59;100.00;101403.22;5095884;28;19920;-74
2023/08/09 01:06:00;;;;;;;;;;;;;;;11.59;100.00;101406.72;5095682;28;19924;-73
2023/08/09 01:08:40;;;;;;;;;;;;;;;11.63;100.00;101394.81;5096123;28;20014;-73
2023/08/09 01:11:09;;;;;;;;;;;;;;;11.69;100.00;101403.25;5095856;28;19920;-74
2023/08/09 01:13:37;;;;;;;;;;;;;;;11.71;100.00;101402.16;5095706;28;19916;-73
2023/08/09 01:16:02;;;;;;;;;;;;;;;11.71;100.00;101401.31;5095133;28;19942;-74
2023/08/09 01:18:28;;;;;;;;;;;;;;;11.72;100.00;101403.00;5095637;28;20363;-73
2023/08/09 01:20:53;;;;;;;;;;;;;;;11.72;100.00;101403.00;5095336;28;19928;-74
2023/08/09 01:23:20;;;;;;;;;;;;;;;11.72;100.00;101408.31;5094260;28;19924;-73
2023/08/09 01:25:46;;;;;;;;;;;;;;;11.70;100.00;101408.47;5095380;28;19952;-73
2023/08/09 01:28:13;;;;;;;;;;;;;;;11.70;100.00;101407.63;5095246;28;20028;-73
2023/08/09 01:30:38;;;;;;;;;;;;;;;11.69;100.00;101405.91;5095531;28;20462;-74
2023/08/09 01:33:03;;;;;;;;;;;;;;;11.68;100.00;101398.94;5095136;28;20015;-74
2023/08/09 01:35:34;;;;;;;;;;;;;;;11.65;100.00;101406.19;5096028;28;20256;-73
2023/08/09 01:38:05;;;;;;;;;;;;;;;11.63;100.00;101408.16;5094945;28;20291;-73
2023/08/09 01:40:31;;;;;;;;;;;;;;;11.60;100.00;101403.09;5095359;28;19923;-73
2023/08/09 01:42:56;;;;;;;;;;;;;;;11.61;100.00;101403.94;5094711;28;19924;-73
2023/08/09 01:45:22;;;;;;;;;;;;;;;11.60;100.00;101404.91;5095252;28;19920;-73
2023/08/09 01:47:48;;;;;;;;;;;;;;;11.57;100.00;101408.69;5095351;28;20025;-73
2023/08/09 01:50:23;;;;;;;;;;;;;;;11.58;100.00;101412.19;5094603;28;20144;-74
2023/08/09 01:52:48;;;;;;;;;;;;;;;11.59;100.00;101417.38;5077021;28;19970;-73
2023/08/09 01:55:17;;;;;;;;;;;;;;;11.59;100.00;101412.06;5094613;28;20170;-73
2023/08/09 01:57:42;;;;;;;;;;;;;;;11.58;100.00;101412.19;5095120;28;19916;-73
2023/08/09 02:00:09;;;;;;;;;;;;;;;11.57;100.00;101413.16;5094681;28;20019;-73
2023/08/09 02:02:34;;;;;;;;;;;;;;;11.57;100.00;101416.69;5094698;28;19920;-73
2023/08/09 02:04:59;;;;;;;;;;;;;;;11.56;100.00;101420.31;5094240;28;19972;-74
2023/08/09 02:07:24;;;;;;;;;;;;;;;11.56;100.00;101419.47;5076610;28;19920;-73
2023/08/09 02:09:50;;;;;;;;;;;;;;;11.57;100.00;101431.81;5094870;28;19927;-73
2023/08/09 02:12:15;;;;;;;;;;;;;;;11.54;100.00;101432.06;5094410;28;20704;-73
2023/08/09 02:14:40;;;;;;;;;;;;;;;11.52;100.00;101437.53;5076565;28;19970;-74
2023/08/09 02:17:08;;;;;;;;;;;;;;;11.52;100.00;101442.88;5093867;28;19935;-73
2023/08/09 02:19:33;;;;;;;;;;;;;;;11.51;100.00;101443.88;5094422;28;20007;-74
2023/08/09 02:21:58;;;;;;;;;;;;;;;11.50;100.00;101441.31;5094273;28;19965;-74
2023/08/09 02:24:23;;;;;;;;;;;;;;;11.52;100.00;101447.34;5094300;28;19927;-74
2023/08/09 02:26:49;;;;;;;;;;;;;;;11.53;100.00;101447.22;5076349;28;19920;-74
2023/08/09 02:29:14;;;;;;;;;;;;;;;11.55;100.00;101444.44;5093723;28;19920;-74
2023/08/09 02:31:40;;;;;;;;;;;;;;;11.57;100.00;101450.47;5094453;28;19920;-74
2023/08/09 02:34:05;;;;;;;;;;;;;;;11.57;100.00;101451.34;5093609;28;19920;-74
2023/08/09 02:36:31;;;;;;;;;;;;;;;11.59;100.00;101453.88;5076393;28;20275;-73
2023/08/09 02:38:56;;;;;;;;;;;;;;;11.60;100.00;101458.22;5094262;28;19927;-73
2023/08/09 02:41:21;;;;;;;;;;;;;;;11.62;100.00;101451.78;5093744;28;19920;-73
2023/08/09 02:43:47;;;;;;;;;;;;;;;11.64;100.00;101459.63;5093991;28;19920;-73
2023/08/09 02:46:12;;;;;;;;;;;;;;;11.67;100.00;101455.88;5094394;28;19920;-74
2023/08/09 02:48:38;;;;;;;;;;;;;;;11.69;100.00;101454.78;5094474;28;19922;-74
2023/08/09 02:51:04;;;;;;;;;;;;;;;11.69;100.00;101453.91;5075598;28;20393;-74
2023/08/09 02:53:36;;;;;;;;;;;;;;;11.71;100.00;101462.63;5094077;28;19922;-74
2023/08/09 02:56:02;;;;;;;;;;;;;;;11.74;100.00;101465.03;5094685;28;19978;-74
2023/08/09 02:58:27;;;;;;;;;;;;;;;11.80;100.00;101467.19;5094540;28;20401;-73
2023/08/09 03:00:52;;;;;;;;;;;;;;;11.85;100.00;101462.28;5094029;28;19916;-73
2023/08/09 03:03:18;;;;;;;;;;;;;;;11.89;100.00;101469.03;5075959;28;20359;-74
2023/08/09 03:05:43;;;;;;;;;;;;;;;11.94;100.00;101469.53;5075730;28;20033;-73
2023/08/09 03:08:08;;;;;;;;;;;;;;;11.97;100.00;101469.28;5093589;28;19930;-73
2023/08/09 03:10:36;;;;;;;;;;;;;;;12.01;100.00;101466.34;5094575;28;20438;-73
2023/08/09 03:13:01;;;;;;;;;;;;;;;12.01;100.00;101463.66;5095465;28;20322;-73
2023/08/09 03:15:27;;;;;;;;;;;;;;;12.02;100.00;101470.66;5094976;28;19927;-73
2023/08/09 03:17:52;;;;;;;;;;;;;;;12.03;100.00;101473.19;5077648;28;20078;-72
2023/08/09 03:20:18;;;;;;;;;;;;;;;12.06;100.00;101475.63;5077731;28;19965;-73
2023/08/09 03:22:43;;;;;;;;;;;;;;;12.10;100.00;101473.53;5096888;28;20287;-72
2023/08/09 03:25:09;;;;;;;;;;;;;;;12.13;100.00;101467.94;5096800;28;19927;-73
2023/08/09 03:27:35;;;;;;;;;;;;;;;12.13;100.00;101467.94;5097297;28;19951;-73
2023/08/09 03:30:01;;;;;;;;;;;;;;;12.11;100.00;101473.41;5097428;28;20389;-73
2023/08/09 03:32:26;;;;;;;;;;;;;;;12.10;100.00;101477.03;5096223;28;20296;-73
2023/08/09 03:34:51;;;;;;;;;;;;;;;12.07;100.00;101476.47;5096999;28;20380;-73
2023/08/09 03:37:17;;;;;;;;;;;;;;;12.01;100.00;101467.16;5096027;28;19927;-73
2023/08/09 03:39:42;;;;;;;;;;;;;;;11.98;100.00;101476.28;5096545;28;20387;-73
2023/08/09 03:42:07;;;;;;;;;;;;;;;11.95;100.00;101484.53;5096511;28;19926;-73
2023/08/09 03:44:33;;;;;;;;;;;;;;;11.92;100.00;101483.94;5096490;28;19920;-73
2023/08/09 03:46:58;;;;;;;;;;;;;;;11.90;100.00;101491.25;5093581;28;20280;-72
2023/08/09 03:49:23;;;;;;;;;;;;;;;11.87;100.00;101494.13;5093623;28;19980;-73
2023/08/09 03:51:48;;;;;;;;;;;;;;;11.83;100.00;101498.91;5094229;28;19927;-72
2023/08/09 03:54:14;;;;;;;;;;;;;;;11.83;100.00;101496.25;5093087;28;19921;-73
2023/08/09 03:56:40;;;;;;;;;;;;;;;11.82;100.00;101502.53;5076602;28;19927;-73
2023/08/09 03:59:07;;;;;;;;;;;;;;;11.78;100.00;101501.97;5094351;28;20071;-73
2023/08/09 04:01:32;;;;;;;;;;;;;;;11.76;100.00;101505.72;5094324;28;19924;-73
2023/08/09 04:03:57;;;;;;;;;;;;;;;11.74;100.00;101505.03;5094525;28;19916;-73
2023/08/09 04:06:23;;;;;;;;;;;;;;;11.74;100.00;101507.69;5093093;28;19924;-73
2023/08/09 04:08:48;;;;;;;;;;;;;;;11.72;100.00;101518.50;5093504;28;20294;-73
2023/08/09 04:11:14;;;;;;;;;;;;;;;11.72;100.00;101517.63;5093797;28;19959;-73
2023/08/09 04:13:39;;;;;;;;;;;;;;;11.74;100.00;101526.34;5093500;28;20326;-73
2023/08/09 04:16:04;;;;;;;;;;;;;;;11.75;100.00;101526.22;5093045;28;19931;-73
2023/08/09 04:18:30;;;;;;;;;;;;;;;11.78;100.00;101527.78;5092936;28;20006;-73
2023/08/09 04:20:55;;;;;;;;;;;;;;;11.81;100.00;101530.19;5093210;28;20024;-73
2023/08/09 04:23:20;;;;;;;;;;;;;;;11.83;100.00;101534.41;5092749;28;20280;-73
2023/08/09 04:25:46;;;;;;;;;;;;;;;11.87;100.00;101527.00;5092839;28;20294;-74
2023/08/09 04:28:11;;;;;;;;;;;;;;;11.94;100.00;101532.66;5092986;28;19990;-73
2023/08/09 04:30:36;;;;;;;;;;;;;;;11.97;100.00;101533.28;5092499;28;20039;-73
2023/08/09 04:33:03;;;;;;;;;;;;;;;12.03;100.00;101537.22;5092789;28;19970;-73
2023/08/09 04:35:29;;;;;;;;;;;;;;;12.10;100.00;101541.06;5074451;28;19923;-73
2023/08/09 04:37:54;;;;;;;;;;;;;;;12.16;100.00;101537.00;5092999;28;20011;-73
2023/08/09 04:40:19;;;;;;;;;;;;;;;12.22;100.00;101538.31;5092247;28;19916;-73
2023/08/09 04:42:47;;;;;;;;;;;;;;;12.26;100.00;101542.41;5092798;28;19932;-73
2023/08/09 04:45:13;;;;;;;;;;;;;;;12.30;100.00;101539.34;5092704;28;20265;-73
2023/08/09 04:47:38;;;;;;;;;;;;;;;12.35;100.00;101542.44;5074326;28;19916;-73
2023/08/09 04:50:04;;;;;;;;;;;;;;;12.41;100.00;101532.22;5092840;28;20317;-72
2023/08/09 04:52:30;;;;;;;;;;;;;;;12.47;100.00;101542.38;5092288;28;19920;-73
2023/08/09 04:54:56;;;;;;;;;;;;;;;12.55;100.00;101534.50;5092550;28;19916;-72
2023/08/09 04:57:21;;;;;;;;;;;;;;;12.63;100.00;101541.84;5093322;28;19920;-73
2023/08/09 04:59:46;;;;;;;;;;;;;;;12.70;100.00;101543.84;5095940;28;19931;-72
2023/08/09 05:02:11;;;;;;;;;;;;;;;12.79;100.00;101546.69;5096247;28;19973;-73
2023/08/09 05:04:37;;;;;;;;;;;;;;;12.86;100.00;101550.50;5095713;28;19920;-72
2023/08/09 05:07:04;;;;;;;;;;;;;;;12.93;100.00;101553.44;5096066;28;19924;-73
2023/08/09 05:09:29;;;;;;;;;;;;;;;12.96;100.00;101556.72;5077755;28;19931;-72
2023/08/09 05:11:54;;;;;;;;;;;;;;;12.97;100.00;101553.06;5096088;28;20279;-73
2023/08/09 05:14:20;;;;;;;;;;;;;;;12.97;100.00;101550.41;5095600;28;19938;-73
2023/08/09 05:16:45;;;;;;;;;;;;;;;12.95;100.00;101552.34;5095619;28;19928;-73
2023/08/09 05:19:10;;;;;;;;;;;;;;;12.92;100.00;101560.63;5095541;28;20443;-73
2023/08/09 05:21:35;;;;;;;;;;;;;;;12.88;100.00;101554.72;5077343;28;19924;-73
2023/08/09 05:24:01;;;;;;;;;;;;;;;12.84;100.00;101558.66;5095733;28;20297;-72
2023/08/09 05:26:26;;;;;;;;;;;;;;;12.81;100.00;101553.59;5095376;28;19943;-72
2023/08/09 05:28:52;;;;;;;;;;;;;;;12.80;100.00;101557.22;5095738;28;19920;-74
2023/08/09 05:31:17;;;;;;;;;;;;;;;12.80;100.00;101565.22;5095469;28;20014;-72
2023/08/09 05:33:42;;;;;;;;;;;;;;;12.80;100.00;101569.75;5094969;28;20372;-73
2023/08/09 05:36:07;;;;;;;;;;;;;;;12.76;100.00;101571.81;5095712;28;19928;-73
2023/08/09 05:38:33;;;;;;;;;;;;;;;12.74;100.00;101575.63;5077025;28;19949;-73
2023/08/09 05:40:58;;;;;;;;;;;;;;;12.73;100.00;101577.44;5095316;28;19920;-73
2023/08/09 05:43:23;;;;;;;;;;;;;;;12.74;100.00;101567.63;5094979;28;19940;-73
2023/08/09 05:45:49;;;;;;;;;;;;;;;12.77;100.00;101576.19;5095075;28;19920;-73
2023/08/09 05:48:14;;;;;;;;;;;;;;;12.83;100.00;101580.16;5095436;28;20020;-73
2023/08/09 05:50:39;;;;;;;;;;;;;;;12.90;100.00;101588.44;5094891;28;19920;-73
2023/08/09 05:53:04;;;;;;;;;;;;;;;12.98;100.00;101593.97;5095165;28;19974;-73
2023/08/09 05:55:30;;;;;;;;;;;;;;;13.09;100.00;101595.69;5094859;28;19977;-73
2023/08/09 05:57:55;;;;;;;;;;;;;;;13.21;100.00;101602.59;5094909;28;19924;-73
2023/08/09 06:00:20;;;;;;;;;;;;;;;13.37;100.00;101600.25;5076974;28;19926;-73
2023/08/09 06:02:45;;;;;;;;;;;;;;;13.53;100.00;101613.06;5094471;28;19927;-73
2023/08/09 06:05:26;;;;;;;;;;;;;;;13.63;100.00;101602.41;5095026;28;19920;-73
2023/08/09 06:07:52;;;;;;;;;;;;;;;13.70;100.00;101605.34;5095241;28;19927;-73
2023/08/09 06:10:18;;;;;;;;;;;;;;;13.76;100.00;101602.09;5094254;28;19916;-73
2023/08/09 06:12:43;;;;;;;;;;;;;;;13.80;100.00;101590.13;5094159;28;19920;-77
2023/08/09 06:15:09;;;;;;;;;;;;;;;13.87;100.00;101598.47;5094736;28;20069;-73
2023/08/09 06:17:34;;;;;;;;;;;;;;;13.91;100.00;101602.50;5093986;28;19924;-74
2023/08/09 06:20:00;;;;;;;;;;;;;;;13.97;100.00;101611.81;5076491;28;19928;-73
2023/08/09 06:22:25;;;;;;;;;;;;;;;14.07;100.00;101612.63;5096924;28;20001;-73
2023/08/09 06:24:50;;;;;;;;;;;;;;;14.19;100.00;101616.00;5104866;28;19916;-75
2023/08/09 06:27:15;;;;;;;;;;;;;;;14.26;100.00;101620.63;5095793;28;19924;-73
2023/08/09 06:29:40;;;;;;;;;;;;;;;14.37;100.00;101621.47;5111486;28;19926;-76
2023/08/09 06:32:06;;;;;;;;;;;;;;;14.51;100.00;101607.63;5096016;28;20289;-73
2023/08/09 06:34:32;;;;;;;;;;;;;;;14.61;100.00;101612.94;5114315;28;20023;-73
2023/08/09 06:36:57;;;;;;;;;;;;;;;14.66;100.00;101620.53;5110889;28;19924;-73
2023/08/09 06:39:22;;;;;;;;;;;;;;;14.67;100.00;101623.06;5111945;28;19946;-73
2023/08/09 06:41:48;;;;;;;;;;;;;;;14.70;100.00;101624.63;5111543;28;20394;-74
2023/08/09 06:44:13;;;;;;;;;;;;;;;14.71;100.00;101621.78;5112212;28;19965;-74
2023/08/09 06:46:39;;;;;;;;;;;;;;;14.80;100.00;101633.47;5111512;28;20375;-74
2023/08/09 06:49:04;;;;;;;;;;;;;;;14.94;100.00;101633.00;5111499;28;20300;-73
2023/08/09 06:51:29;;;;;;;;;;;;;;;15.13;100.00;101633.88;5111868;28;19920;-73
2023/08/09 06:53:54;;;;;;;;;;;;;;;15.39;100.00;101633.13;5093289;28;20023;-73
2023/08/09 06:56:20;;;;;;;;;;;;;;;15.59;100.00;101632.00;5111618;28;19919;-72
2023/08/09 06:58:45;;;;;;;;;;;;;;;15.86;100.00;101644.53;5111054;28;19924;-74
2023/08/09 07:01:11;;;;;;;;;;;;;;;16.04;100.00;101646.34;5111012;28;19920;-74
2023/08/09 07:03:36;;;;;;;;;;;;;;;16.19;100.00;101642.09;5110941;28;19928;-74
2023/08/09 07:06:02;;;;;;;;;;;;;;;16.28;100.00;101645.69;5111202;28;20386;-76
2023/08/09 07:08:27;;;;;;;;;;;;;;;16.35;100.00;101643.25;5111546;28;19944;-76
2023/08/09 07:10:53;;;;;;;;;;;;;;;16.38;100.00;101643.75;5111251;28;20014;-75
2023/08/09 07:13:18;;;;;;;;;;;;;;;16.46;100.00;101648.34;5093046;28;20382;-73
2023/08/09 07:15:43;;;;;;;;;;;;;;;16.58;100.00;101646.22;5110854;28;20324;-74
2023/08/09 07:18:09;;;;;;;;;;;;;;;16.73;100.00;101650.03;5111294;28;19978;-74
2023/08/09 07:20:35;;;;;;;;;;;;;;;16.89;100.00;101635.84;5111395;28;20251;-75
2023/08/09 07:23:00;;;;;;;;;;;;;;;17.08;100.00;101631.22;5105624;28;20268;-76
2023/08/09 07:25:25;;;;;;;;;;;;;;;17.16;100.00;101636.59;5094262;28;20350;-74
2023/08/09 07:27:51;;;;;;;;;;;;;;;17.17;100.00;101637.47;5091880;28;20324;-74
2023/08/09 07:30:18;;;;;;;;;;;;;;;17.15;100.00;101634.91;5093292;28;20288;-74
2023/08/09 07:32:43;;;;;;;;;;;;;;;17.05;100.00;101635.06;5092463;28;19920;-74
2023/08/09 07:35:09;;;;;;;;;;;;;;;16.96;100.00;101636.03;5093234;28;19916;-73
2023/08/09 07:37:35;;;;;;;;;;;;;;;16.85;100.00;101638.97;5092970;28;20443;-73
2023/08/09 07:40:03;;;;;;;;;;;;;;;16.81;100.00;101637.59;5104331;28;20276;-74
2023/08/09 07:42:28;;;;;;;;;;;;;;;16.89;100.00;101643.06;5092720;28;20252;-72
2023/08/09 07:44:53;;;;;;;;;;;;;;;16.99;100.00;101643.78;5110356;28;19927;-73
2023/08/09 07:47:19;;;;;;;;;;;;;;;17.22;100.00;101654.78;5092725;28;19924;-74
2023/08/09 07:49:45;;;;;;;;;;;;;;;17.42;100.00;101658.03;5111154;28;19963;-74
2023/08/09 07:52:10;;;;;;;;;;;;;;;17.64;100.00;101658.41;5113684;28;19926;-77
2023/08/09 07:54:36;;;;;;;;;;;;;;;17.92;100.00;101660.84;5111559;28;20006;-78
2023/08/09 07:57:02;;;;;;;;;;;;;;;18.18;100.00;101663.34;5092372;28;20372;-78
2023/08/09 07:59:27;;;;;;;;;;;;;;;18.46;100.00;101669.19;5111110;28;20010;-80
2023/08/09 08:01:52;;;;;;;;;;;;;;;18.38;100.00;101674.63;5111226;28;20386;-78
2023/08/09 08:04:18;;;;;;;;;;;;;;;18.11;100.00;101668.56;5110577;28;19976;-81
2023/08/09 08:06:45;;;;;;;;;;;;;;;17.74;100.00;101679.81;5092669;28;20337;-78
2023/08/09 08:09:12;;;;;;;;;;;;;;;17.34;100.00;101676.84;5110640;28;19927;-78
2023/08/09 08:11:38;;;;;;;;;;;;;;;17.18;100.00;101680.34;5110702;28;20386;-84
2023/08/09 08:14:03;;;;;;;;;;;;;;;17.18;100.00;101682.16;5110271;28;19938;-77
2023/08/09 08:16:29;;;;;;;;;;;;;;;17.48;100.00;101687.97;5110520;28;20371;-77
2023/08/09 08:18:54;;;;;;;;;;;;;;;17.79;100.00;101693.59;5110551;28;20283;-84
2023/08/09 08:21:19;;;;;;;;;;;;;;;18.01;100.00;101694.81;5110745;28;19927;-79
2023/08/09 08:23:44;;;;;;;;;;;;;;;18.07;100.00;101693.31;5110373;28;19919;-81
2023/08/09 08:26:10;;;;;;;;;;;;;;;18.21;100.00;101689.94;5092193;28;19962;-82
2023/08/09 08:28:35;;;;;;;;;;;;;;;18.51;100.00;101690.25;5110959;28;19963;-81
2023/08/09 08:31:04;;;;;;;;;;;;;;;18.94;100.00;101701.63;5111032;28;19919;-78
2023/08/09 08:33:30;;;;;;;;;;;;;;;19.19;100.00;101696.16;5115173;28;19919;-86
2023/08/09 08:35:55;;;;;;;;;;;;;;;19.15;100.00;101690.28;5114198;28;20032;-81
2023/08/09 08:38:20;;;;;;;;;;;;;;;18.63;100.00;101706.91;5114628;28;19955;-82
2023/08/09 08:40:46;;;;;;;;;;;;;;;18.53;100.00;101704.41;5096686;28;19967;-80
2023/08/09 08:43:11;;;;;;;;;;;;;;;18.75;100.00;101708.25;5097646;28;19931;-83
2023/08/09 08:45:40;;;;;;;;;;;;;;;19.29;100.00;101704.88;5116445;28;20418;-81
2023/08/09 08:48:10;;;;;;;;;;;;;;;19.90;100.00;101713.16;5115524;28;20363;-81
2023/08/09 08:50:40;;;;;;;;;;;;;;;20.26;100.00;101719.81;5115555;28;19966;-79
2023/08/09 08:53:06;;;;;;;;;;;;;;;20.33;100.00;101714.50;5115539;28;20263;-78
2023/08/09 08:55:32;;;;;;;;;;;;;;;20.37;100.00;101716.66;5116777;28;19919;-81
2023/08/09 08:57:57;;;;;;;;;;;;;;;20.45;100.00;101721.16;5116105;28;19920;-79
2023/08/09 09:00:23;;;;;;;;;;;;;;;20.29;100.00;101726.69;5115718;28;19930;-76
2023/08/09 09:02:49;;;;;;;;;;;;;;;19.95;100.00;101728.00;5082424;28;19927;-81
2023/08/09 09:05:16;;;;;;;;;;;;;;;20.07;100.00;101734.66;5079840;28;20010;-79
2023/08/09 09:07:42;;;;;;;;;;;;;;;20.06;100.00;101728.41;5094952;28;19927;-76
2023/08/09 09:10:09;;;;;;;;;;;;;;;19.57;100.00;101728.66;5095726;28;19916;-77
2023/08/09 09:12:35;;;;;;;;;;;;;;;19.13;100.00;101731.94;5096129;28;19916;-77
2023/08/09 09:15:03;;;;;;;;;;;;;;;18.74;100.00;101733.50;5095613;28;19920;-77
2023/08/09 09:17:28;;;;;;;;;;;;;;;19.12;100.00;101727.53;5095326;28;19925;-76
2023/08/09 09:19:54;;;;;;;;;;;;;;;20.03;100.00;101733.31;5095175;28;19935;-77
2023/08/09 09:22:30;;;;;;;;;;;;;;;20.92;100.00;101730.00;5096000;28;19942;-79
2023/08/09 09:24:59;;;;;;;;;;;;;;;21.57;100.00;101738.38;5095413;28;20253;-77
2023/08/09 09:27:27;;;;;;;;;;;;;;;21.90;100.00;101740.59;5095462;28;20283;-80
2023/08/09 09:29:53;;;;;;;;;;;;;;;21.51;100.00;101734.53;5095122;28;19923;-78
2023/08/09 09:32:20;;;;;;;;;;;;;;;22.27;100.00;101728.66;5095603;28;20346;-76
2023/08/09 09:34:45;;;;;;;;;;;;;;;23.09;100.00;101725.50;5095288;28;20284;-76
2023/08/09 09:37:14;;;;;;;;;;;;;;;23.94;100.00;101726.91;5094957;28;19923;-77
2023/08/09 09:39:41;;;;;;;;;;;;;;;24.45;96.13;101717.31;5095306;28;20292;-76
2023/08/09 09:42:06;;;;;;;;;;;;;;;24.52;85.98;101730.88;5094936;28;19920;-74
2023/08/09 09:44:31;;;;;;;;;;;;;;;24.15;100.00;101726.94;5076067;28;19927;-73
2023/08/09 09:47:00;;;;;;;;;;;;;;;24.35;92.58;101730.50;5095300;28;19916;-73
2023/08/09 09:49:25;;;;;;;;;;;;;;;23.67;100.00;101744.16;5095310;28;20333;-75
2023/08/09 09:51:53;;;;;;;;;;;;;;;22.97;100.00;101752.38;5095281;28;19920;-74
2023/08/09 09:54:19;;;;;;;;;;;;;;;22.28;99.52;101748.50;5094794;28;20064;-75
2023/08/09 09:56:44;;;;;;;;;;;;;;;22.07;100.00;101747.47;5094962;28;19955;-75
2023/08/09 09:59:10;;;;;;;;;;;;;;;22.71;100.00;101756.59;5095297;28;19928;-79
2023/08/09 10:01:39;;;;;;;;;;;;;;;23.40;100.00;101757.63;5095528;28;19920;-76
2023/08/09 10:04:08;;;;;;;;;;;;;;;23.67;90.14;101758.56;5094871;28;19916;-75
2023/08/09 10:06:37;;;;;;;;;;;;;;;23.55;80.67;101771.91;5095096;28;19945;-74
2023/08/09 10:09:04;;;;;;;;;;;;;;;23.17;100.00;101774.22;5094302;28;19916;-76
2023/08/09 10:11:32;;;;;;;;;;;;;;;23.44;95.07;101767.06;5094709;28;19921;-76
2023/08/09 10:14:00;;;;;;;;;;;;;;;22.78;100.00;101770.19;5094365;28;20102;-80
2023/08/09 10:16:27;;;;;;;;;;;;;;;22.02;100.00;101785.16;5094496;28;20368;-77
2023/08/09 10:18:56;;;;;;;;;;;;;;;21.23;100.00;101783.94;5097780;28;19928;-76
2023/08/09 10:21:22;;;;;;;;;;;;;;;21.05;100.00;101789.72;5113020;28;19927;-84
2023/08/09 10:24:04;;;;;;;;;;;;;;;20.94;100.00;101785.63;5112689;28;20254;-78
2023/08/09 10:26:30;;;;;;;;;;;;;;;20.58;100.00;101788.94;5112397;28;20026;-81
2023/08/09 10:29:01;;;;;;;;;;;;;;;20.64;100.00;101794.66;5112065;28;20034;-83
2023/08/09 10:31:46;;;;;;;;;;;;;;;21.13;100.00;101800.44;5111860;28;19935;-77
2023/08/09 10:34:11;;;;;;;;;;;;;;;21.21;100.00;101807.63;5111686;28;19923;-77
2023/08/09 10:36:37;;;;;;;;;;;;;;;21.28;100.00;101810.44;5112109;28;19920;-78
2023/08/09 10:39:09;;;;;;;;;;;;;;;21.47;100.00;101804.47;5096237;28;20206;-77
2023/08/09 10:41:34;;;;;;;;;;;;;;;21.64;100.00;101809.69;5097947;28;20440;-81
2023/08/09 10:44:03;;;;;;;;;;;;;;;22.02;100.00;101807.66;5075807;28;19943;-80
2023/08/09 10:46:31;;;;;;;;;;;;;;;22.89;100.00;101804.91;5091475;28;19920;-76
2023/08/09 10:49:00;;;;;;;;;;;;;;;23.64;97.17;101801.59;5091646;28;19920;-79
2023/08/09 10:51:26;;;;;;;;;;;;;;;23.59;89.81;101799.50;5073763;28;19924;-79
2023/08/09 10:53:51;;;;;;;;;;;;;;;22.97;94.99;101810.19;5091390;28;20440;-77
2023/08/09 10:56:37;;;;;;;;;;;;;;;23.04;98.39;101813.78;5091470;28;19923;-79
2023/08/09 10:59:06;;;;;;;;;;;;;;;22.32;100.00;101814.88;5091480;28;20029;-77
2023/08/09 11:01:34;;;;;;;;;;;;;;;22.43;100.00;101822.47;5091230;28;19976;-79
2023/08/09 11:04:00;;;;;;;;;;;;;;;23.31;90.90;101813.16;5091261;28;20320;-79
2023/08/09 11:06:37;;;;;;;;;;;;;;;23.96;85.00;101821.81;5090453;28;19924;-73
2023/08/09 11:09:12;;;;;;;;;;;;;;;23.96;79.46;101823.69;5091509;28;20376;-72
2023/08/09 11:11:38;;;;;;;;;;;;;;;23.69;77.54;101826.28;5093748;28;20399;-73
2023/08/09 11:14:04;;;;;;;;;;;;;;;23.82;82.36;101826.31;5092274;28;19920;-73
2023/08/09 11:16:30;;;;;;;;;;;;;;;24.07;84.19;101823.94;5092663;28;19920;-73
2023/08/09 11:19:15;;;;;;;;;;;;;;;23.26;83.90;101829.19;5093678;28;20376;-72
2023/08/09 11:21:41;;;;;;;;;;;;;;;22.77;87.56;101839.88;5093540;28;19916;-72
2023/08/09 11:24:07;;;;;;;;;;;;;;;22.75;92.47;101841.97;5075387;28;19920;-76
2023/08/09 11:26:33;;;;;;;;;;;;;;;23.02;84.65;101832.16;5075429;28;19995;-72
2023/08/09 11:29:00;;;;;;;;;;;;;;;23.45;90.56;101842.03;5093173;28;19916;-72
2023/08/09 11:31:25;;;;;;;;;;;;;;;22.67;87.38;101850.22;5092993;28;19962;-73
2023/08/09 11:33:55;;;;;;;;;;;;;;;22.36;100.00;101849.53;5075151;28;19959;-72
2023/08/09 11:36:21;;;;;;;;;;;;;;;23.08;96.64;101849.53;5074932;28;19916;-73
2023/08/09 11:38:46;;;;;;;;;;;;;;;23.79;77.91;101858.50;5093342;28;20295;-72
2023/08/09 11:41:15;;;;;;;;;;;;;;;24.21;82.05;101853.88;5092973;28;20027;-73
2023/08/09 11:43:40;;;;;;;;;;;;;;;24.37;76.20;101858.91;5093440;28;19952;-73
2023/08/09 11:46:05;;;;;;;;;;;;;;;23.93;71.04;101869.25;5093320;28;19974;-72
2023/08/09 11:48:32;;;;;;;;;;;;;;;23.83;79.15;101862.50;5074901;28;19920;-72
2023/08/09 11:51:00;;;;;;;;;;;;;;;23.36;86.15;101873.09;5093812;28;19920;-72
2023/08/09 11:53:25;;;;;;;;;;;;;;;23.80;88.06;101879.22;5093339;28;19916;-72
2023/08/09 11:55:50;;;;;;;;;;;;;;;23.98;71.04;101881.41;5093405;28;20007;-71
2023/08/09 11:58:16;;;;;;;;;;;;;;;23.37;67.91;101877.50;5074812;28;20299;-72
2023/08/09 12:00:42;;;;;;;;;;;;;;;23.10;74.22;101874.63;5093266;28;19920;-74
2023/08/09 12:03:07;;;;;;;;;;;;;;;23.40;78.59;101869.78;5093087;28;19923;-72
2023/08/09 12:05:32;;;;;;;;;;;;;;;24.11;74.54;101876.03;5092498;28;19921;-73
2023/08/09 12:08:03;;;;;;;;;;;;;;;24.25;70.53;101891.31;5094975;28;19926;-72
2023/08/09 12:10:28;;;;;;;;;;;;;;;24.88;72.16;101879.28;5096938;28;19927;-72
2023/08/09 12:12:53;;;;;;;;;;;;;;;24.79;68.73;101880.56;5078834;28;19916;-72
2023/08/09 12:15:18;;;;;;;;;;;;;;;23.29;66.09;101885.78;5096677;28;19927;-73
2023/08/09 12:17:45;;;;;;;;;;;;;;;22.73;71.30;101898.25;5097160;28;20390;-72
2023/08/09 12:20:11;;;;;;;;;;;;;;;22.11;91.27;101894.22;5097002;28;19916;-72
2023/08/09 12:22:37;;;;;;;;;;;;;;;22.88;86.83;101904.44;5096659;28;19946;-72